Andover, Ohio
Current Conditions -  °F | °C
As of 4:53 AM on Wednesday 22 Oct 2014 (Local Time) from KHZY Reporting Station
Overcast Overcast  
Wind Chill: 42°   Ceiling: 700
Heat Index: 46°   Visibility: 10mi
Dew Point: 43°   Wind: 7mph
Humidity: 89%   Direction: 30°NNE
Pressure: 30.14"   Gusts: NA
Location:  41.61°N, 80.57°W
Report Text: KHZY 220853Z AUTO 03006KT 10SM OVC007 08/06 A3014 RMK AO2 SLP210 T00780061 53011
Loading
Personal Weather Stations






























Interactive Weather Map
Tropical Storm Tracking
New forecast layout! Learn more

10-Day Weather Forecast

Advertisements
Track Severe Weather on mobile